Billings Logan International Airport
KBIL : now visible

Airfield :











YOU CAN JOIN US ON...

 
LOGIN :

Register | Disclaimer

   EN    FR    IT 

 









Legend :    VFR   Marginal VFR   IFR   Intensive IFR   Very Intensive IFR
Visi :
Ceiling :
>= 8 km
>= 3000ft
5 to 8 km
1000 to 3000 ft
1500m to 5 km
500 to 1000 ft
800 to 1500m
200 to 500 ft
< 800m
< 200 ft
Symbols :   Thunderstorms  Fog  Heavy snow  Heavy precipitations  Wind > 20 kt






- Airport Elevation : 3652 ft
- IATA code : BIL


KBIL - Billings Logan International

CURRENT METAR :
  • 071453Z 00000KT 10SM BKN024 06/05 A3047 RMK AO2 SLP329 T00610050 53004

EXPIRED METARs :
  • 071417Z 00000KT 10SM BKN024 06/04 A3046 RMK AO2 T00560044
  • 071353Z 00000KT 10SM SCT023 05/04 A3046 RMK AO2 SLP326 T00500039
  • 071314Z 00000KT 10SM SCT023 06/04 A3046 RMK AO2 T00560039
  • 071253Z 00000KT 10SM BKN022 05/04 A3046 RMK AO2 SLP322 T00500039

TAF KBIL
Valid from the 07 at 12:00 until the 08 at 12:00 UTC


071132Z 0712/0812 VRB04KT P6SM VCFG FEW006 BKN022
FM071400 VRB04KT 3SM BR FEW003 SCT022
FM071600 12006KT P6SM FEW025
FM071800 13006KT P6SM SKC
FM080200 21006KT P6SM SKC
KZLC FIR / North America



MET'MAP, your aeronautical weather chart ! - Copyright ORBIFLY December 2007 - Disclaimer

ORBIFLY MET'MAP TEAM :

Programming & Development : Alexandra Zaïnal
Original concept : Baudouin d'Aumeries
Technical & hardware support : Manuel Goepfert
Assistance : Marc-Olivier Méhu




SOURCES & CREDITS :

   NOAA       Earth
Advisory